Valentine, NE

2:13 PM CDT on August 28, 2015 (GMT -0500)
Valentine EW3958 | | Change Station
CLOSE
Current Station
Personal Weather Station
Location: Valentine, NE
Elevation: 2590 ft
Nearby Weather Stations

Elev 2590 ft 42.88 °N, 100.56 °W | Updated 2 seconds ago

Partly Cloudy
Partly Cloudy
76.9 °F
Feels Like 79 °F
N
7.0
Wind Variable Wind from NE
Gusts 13.0 mph

Today
High -- | Low -- °F
--% Chance of Precip.
Yesterday
High -- | Low -- °F
Precip. -- in
7:02 AM 8:23 PM
Waxing Gibbous, 99% visible
Pressure 30.02 in
Visibility 10.0 miles
Clouds Few 2700 ft
Heat Index 79 °F
Dew Point 66 °F
Humidity 68%
Rainfall 0.00 in
Snow Depth Not available.
UV 9 out of 12
Pollen 9.70 out of 12
Air Quality Not available.
Flu Activity Not available.
METAR KVTN 281852Z AUTO 02006KT 10SM FEW027 26/17 A3002 RMK AO2 SLPNO T02560167
Pressure 30.02 in
Visibility 10.0 miles
Clouds Few 2700 ft
Heat Index 79 °F
Dew Point 66 °F
Humidity 68%
Rainfall 0.00 in
Snow Depth Not available.
UV 9 out of 12
Pollen 9.70 out of 12
Air Quality Not available.
Flu Activity Not available.
METAR KVTN 281852Z AUTO 02006KT 10SM FEW027 26/17 A3002 RMK AO2 SLPNO T02560167

10-Day Weather Forecast

×

Almanac

Astronomy

Aug. 28, 2015 Rise Set
Actual Time
Civil Twilight
Nautical Twilight
Astronomical Twilight
Moon
Length of Visible Light
Length of Day
Tomorrow will be .
, % of the Moon is Illuminated

Today's Extremes

State Highs State Lows

Community

WunderPhotos

Upload Photos

1,850,460 photos uploaded!

WunderBlogs® & News

Nearby

Air Quality

  Air Quality AQ Index Pollutant
Not available.

Snow Depth

Station Depth Elevation

Earthquake Activity

City Distance Mag. Time & Date
Minimum magnitude displayed is 2.5.

Coastal Water Temperatures

Place Temperature

Stations

Nearby Weather Stations

Station Location Temp. Windchill Dew Point Humidity Wind Precip. Elev Updated Type